Аэропорт: Петропавловск. Петропавловск

ICAO: UACP

METAR:
2019/03/26 11:30
UACP 261130Z 23005MPS 9999 FEW008 02/01 Q1015 R23/1/0060 NOSIG RMK QFE748/0998
METAR:
2014/11/02 09:00
TAF UACP 020753Z 0209/0218 21004MPS 9999 BKN030